sensor_id;sensor_type;location;lat;lon;timestamp;P1;durP1;ratioP1;P2;durP2;ratioP2
71183;SDS011;58887;51.980;4.464;2022-07-29T00:01:59;1.62;;;1.62;;
71183;SDS011;58887;51.980;4.464;2022-07-29T00:04:24;1.79;;;1.79;;
71183;SDS011;58887;51.980;4.464;2022-07-29T00:06:50;1.56;;;1.56;;
71183;SDS011;58887;51.980;4.464;2022-07-29T00:09:16;1.63;;;1.63;;
71183;SDS011;58887;51.980;4.464;2022-07-29T00:11:41;1.54;;;1.54;;
71183;SDS011;58887;51.980;4.464;2022-07-29T00:14:07;1.76;;;1.76;;
71183;SDS011;58887;51.980;4.464;2022-07-29T00:16:33;1.65;;;1.65;;
71183;SDS011;58887;51.980;4.464;2022-07-29T00:18:58;1.60;;;1.60;;
71183;SDS011;58887;51.980;4.464;2022-07-29T00:21:24;1.71;;;1.71;;
71183;SDS011;58887;51.980;4.464;2022-07-29T00:23:49;1.84;;;1.84;;
71183;SDS011;58887;51.980;4.464;2022-07-29T00:26:15;1.78;;;1.78;;
71183;SDS011;58887;51.980;4.464;2022-07-29T00:28:40;1.64;;;1.64;;
71183;SDS011;58887;51.980;4.464;2022-07-29T00:31:06;1.83;;;1.83;;
71183;SDS011;58887;51.980;4.464;2022-07-29T00:33:32;1.69;;;1.69;;
71183;SDS011;58887;51.980;4.464;2022-07-29T00:35:58;1.60;;;1.60;;
71183;SDS011;58887;51.980;4.464;2022-07-29T00:38:23;1.75;;;1.75;;
71183;SDS011;58887;51.980;4.464;2022-07-29T00:40:49;1.90;;;1.90;;
71183;SDS011;58887;51.980;4.464;2022-07-29T00:43:15;1.78;;;1.78;;
71183;SDS011;58887;51.980;4.464;2022-07-29T00:45:42;1.67;;;1.67;;
71183;SDS011;58887;51.980;4.464;2022-07-29T00:48:09;1.90;;;1.90;;
71183;SDS011;58887;51.980;4.464;2022-07-29T00:50:35;1.89;;;1.89;;
71183;SDS011;58887;51.980;4.464;2022-07-29T00:53:02;1.77;;;1.77;;
71183;SDS011;58887;51.980;4.464;2022-07-29T00:55:29;1.77;;;1.77;;
71183;SDS011;58887;51.980;4.464;2022-07-29T00:57:55;1.72;;;1.72;;
71183;SDS011;58887;51.980;4.464;2022-07-29T01:00:24;1.72;;;1.72;;
71183;SDS011;58887;51.980;4.464;2022-07-29T01:02:52;1.64;;;1.64;;
71183;SDS011;58887;51.980;4.464;2022-07-29T01:05:18;1.80;;;1.80;;
71183;SDS011;58887;51.980;4.464;2022-07-29T01:07:49;1.92;;;1.92;;
71183;SDS011;58887;51.980;4.464;2022-07-29T01:10:18;1.96;;;1.96;;
71183;SDS011;58887;51.980;4.464;2022-07-29T01:12:46;1.97;;;1.97;;
71183;SDS011;58887;51.980;4.464;2022-07-29T01:15:15;1.83;;;1.83;;
71183;SDS011;58887;51.980;4.464;2022-07-29T01:20:43;1.83;;;1.83;;
71183;SDS011;58887;51.980;4.464;2022-07-29T01:32:06;2.13;;;2.13;;
71183;SDS011;58887;51.980;4.464;2022-07-29T01:34:40;1.83;;;1.83;;
71183;SDS011;58887;51.980;4.464;2022-07-29T01:37:15;1.80;;;1.80;;
71183;SDS011;58887;51.980;4.464;2022-07-29T01:39:49;1.92;;;1.92;;
71183;SDS011;58887;51.980;4.464;2022-07-29T01:44:57;1.94;;;1.94;;
71183;SDS011;58887;51.980;4.464;2022-07-29T01:47:42;1.87;;;1.87;;
71183;SDS011;58887;51.980;4.464;2022-07-29T01:50:15;2.21;;;2.21;;
71183;SDS011;58887;51.980;4.464;2022-07-29T01:52:48;2.01;;;2.01;;
71183;SDS011;58887;51.980;4.464;2022-07-29T01:55:20;1.96;;;1.96;;
71183;SDS011;58887;51.980;4.464;2022-07-29T01:57:51;1.81;;;1.81;;
71183;SDS011;58887;51.980;4.464;2022-07-29T02:00:17;2.06;;;2.06;;
71183;SDS011;58887;51.980;4.464;2022-07-29T02:02:44;2.06;;;2.06;;
71183;SDS011;58887;51.980;4.464;2022-07-29T02:05:14;1.96;;;1.96;;
71183;SDS011;58887;51.980;4.464;2022-07-29T02:07:43;2.24;;;2.24;;
71183;SDS011;58887;51.980;4.464;2022-07-29T02:10:12;1.99;;;1.99;;
71183;SDS011;58887;51.980;4.464;2022-07-29T02:12:42;2.11;;;2.11;;
71183;SDS011;58887;51.980;4.464;2022-07-29T02:15:09;2.01;;;2.01;;
71183;SDS011;58887;51.980;4.464;2022-07-29T02:20:39;2.34;;;2.34;;
71183;SDS011;58887;51.980;4.464;2022-07-29T02:23:19;2.22;;;2.22;;
71183;SDS011;58887;51.980;4.464;2022-07-29T02:25:51;2.18;;;2.18;;
71183;SDS011;58887;51.980;4.464;2022-07-29T02:28:20;2.05;;;2.05;;
71183;SDS011;58887;51.980;4.464;2022-07-29T02:30:52;2.21;;;2.21;;
71183;SDS011;58887;51.980;4.464;2022-07-29T02:33:21;2.35;;;2.35;;
71183;SDS011;58887;51.980;4.464;2022-07-29T02:35:51;2.24;;;2.24;;
71183;SDS011;58887;51.980;4.464;2022-07-29T02:38:18;2.24;;;2.24;;
71183;SDS011;58887;51.980;4.464;2022-07-29T02:41:05;2.15;;;2.15;;
71183;SDS011;58887;51.980;4.464;2022-07-29T02:43:36;2.31;;;2.31;;
71183;SDS011;58887;51.980;4.464;2022-07-29T02:46:03;2.18;;;2.18;;
71183;SDS011;58887;51.980;4.464;2022-07-29T02:48:34;2.10;;;2.10;;
71183;SDS011;58887;51.980;4.464;2022-07-29T02:51:07;2.32;;;2.32;;
71183;SDS011;58887;51.980;4.464;2022-07-29T02:53:57;2.32;;;2.32;;
71183;SDS011;58887;51.980;4.464;2022-07-29T02:56:32;2.23;;;2.23;;
71183;SDS011;58887;51.980;4.464;2022-07-29T02:59:01;2.30;;;2.30;;
71183;SDS011;58887;51.980;4.464;2022-07-29T03:01:31;2.32;;;2.32;;
71183;SDS011;58887;51.980;4.464;2022-07-29T03:04:00;2.12;;;2.12;;
71183;SDS011;58887;51.980;4.464;2022-07-29T03:06:29;2.21;;;2.21;;
71183;SDS011;58887;51.980;4.464;2022-07-29T03:08:59;2.29;;;2.29;;
71183;SDS011;58887;51.980;4.464;2022-07-29T03:11:25;2.04;;;2.04;;
71183;SDS011;58887;51.980;4.464;2022-07-29T03:13:52;1.96;;;1.96;;
71183;SDS011;58887;51.980;4.464;2022-07-29T03:16:19;2.19;;;2.19;;
71183;SDS011;58887;51.980;4.464;2022-07-29T03:18:47;2.18;;;2.18;;
71183;SDS011;58887;51.980;4.464;2022-07-29T03:21:13;2.11;;;2.11;;
71183;SDS011;58887;51.980;4.464;2022-07-29T03:23:43;2.21;;;2.21;;
71183;SDS011;58887;51.980;4.464;2022-07-29T03:26:10;2.29;;;2.29;;
71183;SDS011;58887;51.980;4.464;2022-07-29T03:28:36;2.38;;;2.38;;
71183;SDS011;58887;51.980;4.464;2022-07-29T03:31:02;2.30;;;2.30;;
71183;SDS011;58887;51.980;4.464;2022-07-29T03:33:27;2.18;;;2.18;;
71183;SDS011;58887;51.980;4.464;2022-07-29T03:35:54;2.52;;;2.52;;
71183;SDS011;58887;51.980;4.464;2022-07-29T03:38:19;2.35;;;2.35;;
71183;SDS011;58887;51.980;4.464;2022-07-29T03:40:51;2.41;;;2.41;;
71183;SDS011;58887;51.980;4.464;2022-07-29T03:43:20;2.53;;;2.53;;
71183;SDS011;58887;51.980;4.464;2022-07-29T03:45:50;2.61;;;2.61;;
71183;SDS011;58887;51.980;4.464;2022-07-29T03:48:21;2.57;;;2.57;;
71183;SDS011;58887;51.980;4.464;2022-07-29T03:50:49;2.62;;;2.62;;
71183;SDS011;58887;51.980;4.464;2022-07-29T03:53:16;2.30;;;2.30;;
71183;SDS011;58887;51.980;4.464;2022-07-29T03:55:43;2.62;;;2.62;;
71183;SDS011;58887;51.980;4.464;2022-07-29T03:58:12;2.55;;;2.55;;
71183;SDS011;58887;51.980;4.464;2022-07-29T04:00:39;2.69;;;2.69;;
71183;SDS011;58887;51.980;4.464;2022-07-29T04:03:06;2.85;;;2.85;;
71183;SDS011;58887;51.980;4.464;2022-07-29T04:05:33;2.79;;;2.79;;
71183;SDS011;58887;51.980;4.464;2022-07-29T04:07:59;2.72;;;2.72;;
71183;SDS011;58887;51.980;4.464;2022-07-29T04:10:24;2.92;;;2.92;;
71183;SDS011;58887;51.980;4.464;2022-07-29T04:12:50;3.00;;;3.00;;
71183;SDS011;58887;51.980;4.464;2022-07-29T04:15:15;2.87;;;2.87;;
71183;SDS011;58887;51.980;4.464;2022-07-29T04:17:41;2.72;;;2.72;;
71183;SDS011;58887;51.980;4.464;2022-07-29T04:20:06;2.87;;;2.87;;
71183;SDS011;58887;51.980;4.464;2022-07-29T04:22:32;2.94;;;2.94;;
71183;SDS011;58887;51.980;4.464;2022-07-29T04:24:57;3.01;;;3.01;;
71183;SDS011;58887;51.980;4.464;2022-07-29T04:27:23;2.94;;;2.94;;
71183;SDS011;58887;51.980;4.464;2022-07-29T04:29:49;3.06;;;3.06;;
71183;SDS011;58887;51.980;4.464;2022-07-29T04:32:14;2.97;;;2.97;;
71183;SDS011;58887;51.980;4.464;2022-07-29T04:34:39;2.84;;;2.84;;
71183;SDS011;58887;51.980;4.464;2022-07-29T04:37:05;3.22;;;3.22;;
71183;SDS011;58887;51.980;4.464;2022-07-29T04:39:30;3.30;;;3.30;;
71183;SDS011;58887;51.980;4.464;2022-07-29T04:41:56;3.28;;;3.28;;
71183;SDS011;58887;51.980;4.464;2022-07-29T04:44:21;3.18;;;3.18;;
71183;SDS011;58887;51.980;4.464;2022-07-29T04:46:47;3.39;;;3.39;;
71183;SDS011;58887;51.980;4.464;2022-07-29T04:49:12;3.14;;;3.14;;
71183;SDS011;58887;51.980;4.464;2022-07-29T04:51:38;3.48;;;3.48;;
71183;SDS011;58887;51.980;4.464;2022-07-29T04:54:04;3.12;;;3.12;;
71183;SDS011;58887;51.980;4.464;2022-07-29T04:56:29;3.16;;;3.16;;
71183;SDS011;58887;51.980;4.464;2022-07-29T04:58:55;3.22;;;3.22;;
71183;SDS011;58887;51.980;4.464;2022-07-29T05:01:20;3.40;;;3.40;;
71183;SDS011;58887;51.980;4.464;2022-07-29T05:03:46;3.44;;;3.44;;
71183;SDS011;58887;51.980;4.464;2022-07-29T05:06:11;3.60;;;3.60;;
71183;SDS011;58887;51.980;4.464;2022-07-29T05:08:37;3.32;;;3.32;;
71183;SDS011;58887;51.980;4.464;2022-07-29T05:11:03;3.02;;;3.02;;
71183;SDS011;58887;51.980;4.464;2022-07-29T05:13:29;3.15;;;3.15;;
71183;SDS011;58887;51.980;4.464;2022-07-29T05:15:54;3.21;;;3.21;;
71183;SDS011;58887;51.980;4.464;2022-07-29T05:18:20;3.07;;;3.07;;
71183;SDS011;58887;51.980;4.464;2022-07-29T05:20:46;2.92;;;2.92;;
71183;SDS011;58887;51.980;4.464;2022-07-29T05:23:11;2.88;;;2.88;;
71183;SDS011;58887;51.980;4.464;2022-07-29T05:25:40;3.23;;;3.23;;
71183;SDS011;58887;51.980;4.464;2022-07-29T05:28:06;3.10;;;3.10;;
71183;SDS011;58887;51.980;4.464;2022-07-29T05:30:31;2.90;;;2.90;;
71183;SDS011;58887;51.980;4.464;2022-07-29T05:32:57;3.09;;;3.09;;
71183;SDS011;58887;51.980;4.464;2022-07-29T05:35:22;2.79;;;2.79;;
71183;SDS011;58887;51.980;4.464;2022-07-29T05:37:47;3.05;;;3.05;;
71183;SDS011;58887;51.980;4.464;2022-07-29T05:40:13;3.00;;;3.00;;
71183;SDS011;58887;51.980;4.464;2022-07-29T05:42:38;2.77;;;2.77;;
71183;SDS011;58887;51.980;4.464;2022-07-29T05:45:04;2.81;;;2.81;;
71183;SDS011;58887;51.980;4.464;2022-07-29T05:47:30;2.92;;;2.92;;
71183;SDS011;58887;51.980;4.464;2022-07-29T05:49:56;2.77;;;2.77;;
71183;SDS011;58887;51.980;4.464;2022-07-29T05:52:22;2.66;;;2.66;;
71183;SDS011;58887;51.980;4.464;2022-07-29T05:54:47;2.66;;;2.66;;
71183;SDS011;58887;51.980;4.464;2022-07-29T05:57:16;2.92;;;2.92;;
71183;SDS011;58887;51.980;4.464;2022-07-29T05:59:42;3.01;;;3.01;;
71183;SDS011;58887;51.980;4.464;2022-07-29T06:02:08;2.84;;;2.84;;
71183;SDS011;58887;51.980;4.464;2022-07-29T06:04:33;2.57;;;2.57;;
71183;SDS011;58887;51.980;4.464;2022-07-29T06:06:59;2.63;;;2.63;;
71183;SDS011;58887;51.980;4.464;2022-07-29T06:09:24;2.72;;;2.72;;
71183;SDS011;58887;51.980;4.464;2022-07-29T06:11:51;2.54;;;2.54;;
71183;SDS011;58887;51.980;4.464;2022-07-29T06:14:17;2.76;;;2.76;;
71183;SDS011;58887;51.980;4.464;2022-07-29T06:16:43;2.60;;;2.60;;
71183;SDS011;58887;51.980;4.464;2022-07-29T06:19:18;2.74;;;2.74;;
71183;SDS011;58887;51.980;4.464;2022-07-29T06:21:44;2.67;;;2.67;;
71183;SDS011;58887;51.980;4.464;2022-07-29T06:24:10;2.62;;;2.62;;
71183;SDS011;58887;51.980;4.464;2022-07-29T06:26:37;2.49;;;2.49;;
71183;SDS011;58887;51.980;4.464;2022-07-29T06:29:03;2.56;;;2.56;;
71183;SDS011;58887;51.980;4.464;2022-07-29T06:31:29;2.58;;;2.58;;
71183;SDS011;58887;51.980;4.464;2022-07-29T06:33:54;2.77;;;2.77;;
71183;SDS011;58887;51.980;4.464;2022-07-29T06:36:20;2.65;;;2.65;;
71183;SDS011;58887;51.980;4.464;2022-07-29T06:38:45;2.66;;;2.66;;
71183;SDS011;58887;51.980;4.464;2022-07-29T06:41:11;2.55;;;2.55;;
71183;SDS011;58887;51.980;4.464;2022-07-29T06:43:40;2.77;;;2.77;;
71183;SDS011;58887;51.980;4.464;2022-07-29T06:46:11;2.97;;;2.97;;
71183;SDS011;58887;51.980;4.464;2022-07-29T06:48:39;2.50;;;2.50;;
71183;SDS011;58887;51.980;4.464;2022-07-29T06:51:07;2.71;;;2.71;;
71183;SDS011;58887;51.980;4.464;2022-07-29T06:53:33;2.62;;;2.62;;
71183;SDS011;58887;51.980;4.464;2022-07-29T06:55:59;2.68;;;2.68;;
71183;SDS011;58887;51.980;4.464;2022-07-29T06:58:26;2.59;;;2.59;;
71183;SDS011;58887;51.980;4.464;2022-07-29T07:00:53;2.72;;;2.72;;
71183;SDS011;58887;51.980;4.464;2022-07-29T07:03:19;2.68;;;2.68;;
71183;SDS011;58887;51.980;4.464;2022-07-29T07:05:45;2.70;;;2.70;;
71183;SDS011;58887;51.980;4.464;2022-07-29T07:08:11;2.80;;;2.80;;
71183;SDS011;58887;51.980;4.464;2022-07-29T07:10:37;2.78;;;2.78;;
71183;SDS011;58887;51.980;4.464;2022-07-29T07:13:03;2.77;;;2.77;;
71183;SDS011;58887;51.980;4.464;2022-07-29T07:15:29;2.67;;;2.67;;
71183;SDS011;58887;51.980;4.464;2022-07-29T07:17:55;2.89;;;2.89;;
71183;SDS011;58887;51.980;4.464;2022-07-29T07:20:22;2.81;;;2.81;;
71183;SDS011;58887;51.980;4.464;2022-07-29T07:22:48;2.90;;;2.90;;
71183;SDS011;58887;51.980;4.464;2022-07-29T07:25:13;2.89;;;2.89;;
71183;SDS011;58887;51.980;4.464;2022-07-29T07:27:39;2.83;;;2.83;;
71183;SDS011;58887;51.980;4.464;2022-07-29T07:30:04;2.73;;;2.73;;
71183;SDS011;58887;51.980;4.464;2022-07-29T07:32:35;2.84;;;2.84;;
71183;SDS011;58887;51.980;4.464;2022-07-29T07:35:00;3.15;;;3.15;;
71183;SDS011;58887;51.980;4.464;2022-07-29T07:37:26;2.82;;;2.82;;
71183;SDS011;58887;51.980;4.464;2022-07-29T07:39:52;3.09;;;3.09;;
71183;SDS011;58887;51.980;4.464;2022-07-29T07:42:18;2.92;;;2.92;;
71183;SDS011;58887;51.980;4.464;2022-07-29T07:44:44;2.72;;;2.72;;
71183;SDS011;58887;51.980;4.464;2022-07-29T07:47:13;2.75;;;2.75;;
71183;SDS011;58887;51.980;4.464;2022-07-29T07:49:40;2.89;;;2.89;;
71183;SDS011;58887;51.980;4.464;2022-07-29T07:52:06;2.91;;;2.91;;
71183;SDS011;58887;51.980;4.464;2022-07-29T07:54:31;2.83;;;2.83;;
71183;SDS011;58887;51.980;4.464;2022-07-29T07:56:57;2.71;;;2.71;;
71183;SDS011;58887;51.980;4.464;2022-07-29T07:59:22;2.79;;;2.79;;
71183;SDS011;58887;51.980;4.464;2022-07-29T08:01:49;3.08;;;3.08;;
71183;SDS011;58887;51.980;4.464;2022-07-29T08:04:15;3.12;;;3.12;;
71183;SDS011;58887;51.980;4.464;2022-07-29T08:06:41;2.82;;;2.82;;
71183;SDS011;58887;51.980;4.464;2022-07-29T08:09:07;2.84;;;2.84;;
71183;SDS011;58887;51.980;4.464;2022-07-29T08:11:32;2.72;;;2.72;;
71183;SDS011;58887;51.980;4.464;2022-07-29T08:13:58;2.69;;;2.69;;
71183;SDS011;58887;51.980;4.464;2022-07-29T08:16:23;2.65;;;2.65;;
71183;SDS011;58887;51.980;4.464;2022-07-29T08:18:50;2.75;;;2.75;;
71183;SDS011;58887;51.980;4.464;2022-07-29T08:21:17;2.46;;;2.46;;
71183;SDS011;58887;51.980;4.464;2022-07-29T08:23:43;2.49;;;2.49;;
71183;SDS011;58887;51.980;4.464;2022-07-29T08:26:14;2.67;;;2.67;;
71183;SDS011;58887;51.980;4.464;2022-07-29T08:28:41;2.82;;;2.82;;
71183;SDS011;58887;51.980;4.464;2022-07-29T08:31:11;2.53;;;2.53;;
71183;SDS011;58887;51.980;4.464;2022-07-29T08:33:38;2.55;;;2.55;;
71183;SDS011;58887;51.980;4.464;2022-07-29T08:36:04;2.61;;;2.61;;
71183;SDS011;58887;51.980;4.464;2022-07-29T08:38:30;2.70;;;2.70;;
71183;SDS011;58887;51.980;4.464;2022-07-29T08:40:56;2.95;;;2.95;;
71183;SDS011;58887;51.980;4.464;2022-07-29T08:43:21;2.99;;;2.99;;
71183;SDS011;58887;51.980;4.464;2022-07-29T08:45:49;2.59;;;2.59;;
71183;SDS011;58887;51.980;4.464;2022-07-29T08:48:16;2.56;;;2.56;;
71183;SDS011;58887;51.980;4.464;2022-07-29T08:50:45;2.51;;;2.51;;
71183;SDS011;58887;51.980;4.464;2022-07-29T08:53:13;2.61;;;2.61;;
71183;SDS011;58887;51.980;4.464;2022-07-29T08:55:42;2.91;;;2.91;;
71183;SDS011;58887;51.980;4.464;2022-07-29T08:58:09;2.69;;;2.69;;
71183;SDS011;58887;51.980;4.464;2022-07-29T09:00:37;2.84;;;2.84;;
71183;SDS011;58887;51.980;4.464;2022-07-29T09:03:07;2.67;;;2.67;;
71183;SDS011;58887;51.980;4.464;2022-07-29T09:05:36;2.80;;;2.80;;
71183;SDS011;58887;51.980;4.464;2022-07-29T09:08:06;2.83;;;2.83;;
71183;SDS011;58887;51.980;4.464;2022-07-29T09:10:32;2.66;;;2.66;;
71183;SDS011;58887;51.980;4.464;2022-07-29T09:12:59;2.85;;;2.85;;
71183;SDS011;58887;51.980;4.464;2022-07-29T09:15:25;2.73;;;2.73;;
71183;SDS011;58887;51.980;4.464;2022-07-29T09:17:50;2.48;;;2.48;;
71183;SDS011;58887;51.980;4.464;2022-07-29T09:20:17;2.58;;;2.58;;
71183;SDS011;58887;51.980;4.464;2022-07-29T09:22:44;3.03;;;3.03;;
71183;SDS011;58887;51.980;4.464;2022-07-29T09:25:14;3.10;;;3.10;;
71183;SDS011;58887;51.980;4.464;2022-07-29T09:28:04;3.12;;;3.12;;
71183;SDS011;58887;51.980;4.464;2022-07-29T09:30:31;3.20;;;3.20;;
71183;SDS011;58887;51.980;4.464;2022-07-29T09:32:57;3.34;;;3.34;;
71183;SDS011;58887;51.980;4.464;2022-07-29T09:35:26;3.09;;;3.09;;
71183;SDS011;58887;51.980;4.464;2022-07-29T09:37:53;3.29;;;3.29;;
71183;SDS011;58887;51.980;4.464;2022-07-29T09:40:28;3.39;;;3.39;;
71183;SDS011;58887;51.980;4.464;2022-07-29T09:42:54;3.43;;;3.43;;
71183;SDS011;58887;51.980;4.464;2022-07-29T09:45:27;2.75;;;2.75;;
71183;SDS011;58887;51.980;4.464;2022-07-29T09:47:54;2.79;;;2.79;;
71183;SDS011;58887;51.980;4.464;2022-07-29T09:50:22;2.73;;;2.73;;
71183;SDS011;58887;51.980;4.464;2022-07-29T09:52:51;2.49;;;2.49;;
71183;SDS011;58887;51.980;4.464;2022-07-29T09:55:20;2.70;;;2.70;;
71183;SDS011;58887;51.980;4.464;2022-07-29T09:57:46;2.84;;;2.84;;
71183;SDS011;58887;51.980;4.464;2022-07-29T10:00:13;2.69;;;2.69;;
71183;SDS011;58887;51.980;4.464;2022-07-29T10:02:42;2.75;;;2.75;;
71183;SDS011;58887;51.980;4.464;2022-07-29T10:05:19;2.94;;;2.94;;
71183;SDS011;58887;51.980;4.464;2022-07-29T10:07:50;3.01;;;3.01;;
71183;SDS011;58887;51.980;4.464;2022-07-29T10:10:21;3.06;;;3.06;;
71183;SDS011;58887;51.980;4.464;2022-07-29T10:12:53;3.12;;;3.12;;
71183;SDS011;58887;51.980;4.464;2022-07-29T10:15:23;3.04;;;3.04;;
71183;SDS011;58887;51.980;4.464;2022-07-29T10:17:52;3.02;;;3.02;;
71183;SDS011;58887;51.980;4.464;2022-07-29T10:20:23;3.21;;;3.21;;
71183;SDS011;58887;51.980;4.464;2022-07-29T10:22:49;3.58;;;3.58;;
71183;SDS011;58887;51.980;4.464;2022-07-29T10:25:16;3.58;;;3.58;;
71183;SDS011;58887;51.980;4.464;2022-07-29T10:27:44;3.39;;;3.39;;
71183;SDS011;58887;51.980;4.464;2022-07-29T10:30:11;3.35;;;3.35;;
71183;SDS011;58887;51.980;4.464;2022-07-29T10:32:49;3.30;;;3.30;;
71183;SDS011;58887;51.980;4.464;2022-07-29T10:41:33;3.49;;;3.49;;
71183;SDS011;58887;51.980;4.464;2022-07-29T10:44:22;3.15;;;3.15;;
71183;SDS011;58887;51.980;4.464;2022-07-29T10:46:51;3.35;;;3.35;;
71183;SDS011;58887;51.980;4.464;2022-07-29T10:49:21;3.07;;;3.07;;
71183;SDS011;58887;51.980;4.464;2022-07-29T10:52:01;2.72;;;2.72;;
71183;SDS011;58887;51.980;4.464;2022-07-29T10:59:42;2.76;;;2.76;;
71183;SDS011;58887;51.980;4.464;2022-07-29T11:07:26;2.46;;;2.46;;
71183;SDS011;58887;51.980;4.464;2022-07-29T11:29:15;2.26;;;2.26;;
71183;SDS011;58887;51.980;4.464;2022-07-29T11:31:45;2.22;;;2.22;;
71183;SDS011;58887;51.980;4.464;2022-07-29T11:34:23;2.07;;;2.07;;
71183;SDS011;58887;51.980;4.464;2022-07-29T11:39:37;1.77;;;1.77;;
71183;SDS011;58887;51.980;4.464;2022-07-29T11:44:54;2.17;;;2.17;;
71183;SDS011;58887;51.980;4.464;2022-07-29T11:47:31;2.27;;;2.27;;
71183;SDS011;58887;51.980;4.464;2022-07-29T11:50:26;1.88;;;1.88;;
71183;SDS011;58887;51.980;4.464;2022-07-29T11:52:59;1.73;;;1.73;;
71183;SDS011;58887;51.980;4.464;2022-07-29T11:55:27;1.70;;;1.70;;
71183;SDS011;58887;51.980;4.464;2022-07-29T11:57:54;1.91;;;1.91;;
71183;SDS011;58887;51.980;4.464;2022-07-29T12:00:33;2.06;;;2.06;;
71183;SDS011;58887;51.980;4.464;2022-07-29T12:03:05;2.14;;;2.14;;
71183;SDS011;58887;51.980;4.464;2022-07-29T12:05:34;1.86;;;1.86;;
71183;SDS011;58887;51.980;4.464;2022-07-29T12:08:09;2.00;;;2.00;;
71183;SDS011;58887;51.980;4.464;2022-07-29T12:10:45;1.96;;;1.96;;
71183;SDS011;58887;51.980;4.464;2022-07-29T12:13:13;1.98;;;1.98;;
71183;SDS011;58887;51.980;4.464;2022-07-29T12:15:40;2.03;;;2.03;;
71183;SDS011;58887;51.980;4.464;2022-07-29T12:18:10;1.96;;;1.96;;
71183;SDS011;58887;51.980;4.464;2022-07-29T12:20:38;2.23;;;2.23;;
71183;SDS011;58887;51.980;4.464;2022-07-29T12:23:04;2.26;;;2.26;;
71183;SDS011;58887;51.980;4.464;2022-07-29T12:25:33;2.41;;;2.41;;
71183;SDS011;58887;51.980;4.464;2022-07-29T12:28:02;2.28;;;2.28;;
71183;SDS011;58887;51.980;4.464;2022-07-29T12:33:01;2.42;;;2.42;;
71183;SDS011;58887;51.980;4.464;2022-07-29T12:35:26;2.29;;;2.29;;
71183;SDS011;58887;51.980;4.464;2022-07-29T12:37:52;2.39;;;2.39;;
71183;SDS011;58887;51.980;4.464;2022-07-29T12:40:20;2.30;;;2.30;;
71183;SDS011;58887;51.980;4.464;2022-07-29T12:43:08;2.28;;;2.28;;
71183;SDS011;58887;51.980;4.464;2022-07-29T12:45:37;2.25;;;2.25;;
71183;SDS011;58887;51.980;4.464;2022-07-29T12:48:04;2.22;;;2.22;;
71183;SDS011;58887;51.980;4.464;2022-07-29T12:50:31;2.49;;;2.49;;
71183;SDS011;58887;51.980;4.464;2022-07-29T12:53:10;2.50;;;2.50;;
71183;SDS011;58887;51.980;4.464;2022-07-29T12:55:39;2.13;;;2.13;;
71183;SDS011;58887;51.980;4.464;2022-07-29T12:58:07;2.34;;;2.34;;
71183;SDS011;58887;51.980;4.464;2022-07-29T13:00:33;2.30;;;2.30;;
71183;SDS011;58887;51.980;4.464;2022-07-29T13:02:59;2.24;;;2.24;;
71183;SDS011;58887;51.980;4.464;2022-07-29T13:05:39;2.28;;;2.28;;
71183;SDS011;58887;51.980;4.464;2022-07-29T13:08:24;2.27;;;2.27;;
71183;SDS011;58887;51.980;4.464;2022-07-29T13:10:50;2.44;;;2.44;;
71183;SDS011;58887;51.980;4.464;2022-07-29T13:13:15;2.27;;;2.27;;
71183;SDS011;58887;51.980;4.464;2022-07-29T13:15:43;1.88;;;1.88;;
71183;SDS011;58887;51.980;4.464;2022-07-29T13:18:33;1.99;;;1.99;;
71183;SDS011;58887;51.980;4.464;2022-07-29T13:21:12;1.97;;;1.97;;
71183;SDS011;58887;51.980;4.464;2022-07-29T13:23:40;1.99;;;1.99;;
71183;SDS011;58887;51.980;4.464;2022-07-29T13:26:06;2.15;;;2.15;;
71183;SDS011;58887;51.980;4.464;2022-07-29T13:28:36;2.01;;;2.01;;
71183;SDS011;58887;51.980;4.464;2022-07-29T13:31:01;2.28;;;2.28;;
71183;SDS011;58887;51.980;4.464;2022-07-29T13:33:27;2.14;;;2.14;;
71183;SDS011;58887;51.980;4.464;2022-07-29T13:35:53;2.11;;;2.11;;
71183;SDS011;58887;51.980;4.464;2022-07-29T13:38:18;2.04;;;2.04;;
71183;SDS011;58887;51.980;4.464;2022-07-29T13:40:44;1.96;;;1.96;;
71183;SDS011;58887;51.980;4.464;2022-07-29T13:43:10;1.88;;;1.88;;
71183;SDS011;58887;51.980;4.464;2022-07-29T13:45:36;2.20;;;2.20;;
71183;SDS011;58887;51.980;4.464;2022-07-29T13:48:01;2.38;;;2.38;;
71183;SDS011;58887;51.980;4.464;2022-07-29T13:50:27;2.22;;;2.22;;
71183;SDS011;58887;51.980;4.464;2022-07-29T13:52:53;2.19;;;2.19;;
71183;SDS011;58887;51.980;4.464;2022-07-29T13:55:19;2.08;;;2.08;;
71183;SDS011;58887;51.980;4.464;2022-07-29T13:57:45;2.11;;;2.11;;
71183;SDS011;58887;51.980;4.464;2022-07-29T14:00:11;2.51;;;2.51;;
71183;SDS011;58887;51.980;4.464;2022-07-29T14:02:37;2.12;;;2.12;;
71183;SDS011;58887;51.980;4.464;2022-07-29T14:05:03;1.98;;;1.98;;
71183;SDS011;58887;51.980;4.464;2022-07-29T14:07:32;2.35;;;2.35;;
71183;SDS011;58887;51.980;4.464;2022-07-29T14:09:58;2.28;;;2.28;;
71183;SDS011;58887;51.980;4.464;2022-07-29T14:12:23;2.04;;;2.04;;
71183;SDS011;58887;51.980;4.464;2022-07-29T14:14:49;1.89;;;1.89;;
71183;SDS011;58887;51.980;4.464;2022-07-29T14:17:15;1.99;;;1.99;;
71183;SDS011;58887;51.980;4.464;2022-07-29T14:19:41;1.87;;;1.87;;
71183;SDS011;58887;51.980;4.464;2022-07-29T14:22:07;2.02;;;2.02;;
71183;SDS011;58887;51.980;4.464;2022-07-29T14:24:33;1.97;;;1.97;;
71183;SDS011;58887;51.980;4.464;2022-07-29T14:27:01;2.27;;;2.27;;
71183;SDS011;58887;51.980;4.464;2022-07-29T14:29:26;2.04;;;2.04;;
71183;SDS011;58887;51.980;4.464;2022-07-29T14:31:52;2.21;;;2.21;;
71183;SDS011;58887;51.980;4.464;2022-07-29T14:34:17;2.16;;;2.16;;
71183;SDS011;58887;51.980;4.464;2022-07-29T14:36:43;1.98;;;1.98;;
71183;SDS011;58887;51.980;4.464;2022-07-29T14:39:09;1.87;;;1.87;;
71183;SDS011;58887;51.980;4.464;2022-07-29T14:41:34;2.16;;;2.16;;
71183;SDS011;58887;51.980;4.464;2022-07-29T14:44:00;2.07;;;2.07;;
71183;SDS011;58887;51.980;4.464;2022-07-29T14:46:26;2.11;;;2.11;;
71183;SDS011;58887;51.980;4.464;2022-07-29T14:48:52;2.15;;;2.15;;
71183;SDS011;58887;51.980;4.464;2022-07-29T14:51:17;2.26;;;2.26;;
71183;SDS011;58887;51.980;4.464;2022-07-29T14:53:43;1.99;;;1.99;;
71183;SDS011;58887;51.980;4.464;2022-07-29T14:56:08;2.04;;;2.04;;
71183;SDS011;58887;51.980;4.464;2022-07-29T14:58:34;2.09;;;2.09;;
71183;SDS011;58887;51.980;4.464;2022-07-29T15:00:59;2.27;;;2.27;;
71183;SDS011;58887;51.980;4.464;2022-07-29T15:03:26;2.22;;;2.22;;
71183;SDS011;58887;51.980;4.464;2022-07-29T15:05:53;2.23;;;2.23;;
71183;SDS011;58887;51.980;4.464;2022-07-29T15:08:19;1.73;;;1.73;;
71183;SDS011;58887;51.980;4.464;2022-07-29T15:10:45;2.11;;;2.11;;
71183;SDS011;58887;51.980;4.464;2022-07-29T15:13:10;1.96;;;1.96;;
71183;SDS011;58887;51.980;4.464;2022-07-29T15:15:36;1.82;;;1.82;;
71183;SDS011;58887;51.980;4.464;2022-07-29T15:18:01;2.21;;;2.21;;
71183;SDS011;58887;51.980;4.464;2022-07-29T15:20:27;2.34;;;2.34;;
71183;SDS011;58887;51.980;4.464;2022-07-29T15:22:52;2.11;;;2.11;;
71183;SDS011;58887;51.980;4.464;2022-07-29T15:25:21;2.19;;;2.19;;
71183;SDS011;58887;51.980;4.464;2022-07-29T15:27:47;2.73;;;2.73;;
71183;SDS011;58887;51.980;4.464;2022-07-29T15:30:13;1.96;;;1.96;;
71183;SDS011;58887;51.980;4.464;2022-07-29T15:32:42;2.11;;;2.11;;
71183;SDS011;58887;51.980;4.464;2022-07-29T15:35:10;2.10;;;2.10;;
71183;SDS011;58887;51.980;4.464;2022-07-29T15:37:39;1.87;;;1.87;;
71183;SDS011;58887;51.980;4.464;2022-07-29T15:40:05;1.86;;;1.86;;
71183;SDS011;58887;51.980;4.464;2022-07-29T15:42:31;1.92;;;1.92;;
71183;SDS011;58887;51.980;4.464;2022-07-29T15:44:57;1.88;;;1.88;;
71183;SDS011;58887;51.980;4.464;2022-07-29T15:47:22;1.91;;;1.91;;
71183;SDS011;58887;51.980;4.464;2022-07-29T15:49:48;1.84;;;1.84;;
71183;SDS011;58887;51.980;4.464;2022-07-29T15:52:14;1.86;;;1.86;;
71183;SDS011;58887;51.980;4.464;2022-07-29T15:54:44;1.89;;;1.89;;